createdAt,value
2024-03-18T00:00:23.778Z,84.30
2024-03-18T00:01:23.815Z,84.30
2024-03-18T00:02:23.727Z,84.30
2024-03-18T00:03:23.839Z,84.20
2024-03-18T00:04:23.710Z,84.30
2024-03-18T00:05:23.762Z,84.20
2024-03-18T00:06:23.693Z,84.30
2024-03-18T00:07:23.690Z,84.30
2024-03-18T00:08:23.687Z,83.99
2024-03-18T00:09:23.661Z,83.99
2024-03-18T00:10:23.647Z,84.20
2024-03-18T00:11:23.644Z,84.41
2024-03-18T00:12:23.646Z,84.20
2024-03-18T00:13:23.606Z,84.41
2024-03-18T00:14:23.582Z,84.61
2024-03-18T00:15:23.624Z,84.72
2024-03-18T00:16:23.562Z,84.55
2024-03-18T00:17:23.527Z,84.86
2024-03-18T00:18:23.515Z,84.86
2024-03-18T00:19:23.549Z,84.86
2024-03-18T00:20:23.539Z,84.96
2024-03-18T00:21:23.524Z,85.27
2024-03-18T00:22:23.509Z,85.48
2024-03-18T00:23:23.493Z,85.58
2024-03-18T00:24:23.539Z,85.48
2024-03-18T00:25:23.565Z,85.48
2024-03-18T00:26:23.475Z,85.58
2024-03-18T00:27:23.419Z,85.58
2024-03-18T00:28:23.387Z,85.94
2024-03-18T00:29:23.400Z,86.25
2024-03-18T00:30:23.404Z,86.35
2024-03-18T00:31:23.389Z,86.35
2024-03-18T00:32:23.333Z,86.55
2024-03-18T00:33:23.340Z,86.76
2024-03-18T00:34:24.715Z,86.76
2024-03-18T00:35:23.315Z,86.66
2024-03-18T00:36:23.314Z,86.87
2024-03-18T00:37:23.324Z,86.87
2024-03-18T00:38:23.309Z,86.87
2024-03-18T00:39:23.309Z,86.76
2024-03-18T00:40:23.248Z,86.87
2024-03-18T00:41:23.323Z,86.87
2024-03-18T00:42:23.251Z,87.12
2024-03-18T00:43:23.200Z,87.01
2024-03-18T00:44:23.221Z,87.12
2024-03-18T00:45:23.231Z,87.12
2024-03-18T00:46:23.216Z,87.01
2024-03-18T00:47:23.295Z,86.87
2024-03-18T00:48:23.139Z,87.01
2024-03-18T00:49:23.162Z,87.12
2024-03-18T00:50:23.120Z,87.22
2024-03-18T00:51:23.174Z,87.32
2024-03-18T00:52:23.163Z,87.32
2024-03-18T00:53:23.110Z,87.32
2024-03-18T00:54:23.109Z,87.43
2024-03-18T00:55:23.085Z,87.53
2024-03-18T00:56:23.057Z,87.63
2024-03-18T00:57:23.138Z,87.53
2024-03-18T00:58:23.030Z,87.53
2024-03-18T00:59:23.015Z,87.63
2024-03-18T01:00:23.020Z,87.63
2024-03-18T01:01:22.982Z,87.74
2024-03-18T01:02:23.021Z,87.84
2024-03-18T01:03:23.034Z,87.84
2024-03-18T01:04:22.981Z,87.95
2024-03-18T01:05:22.922Z,87.84
2024-03-18T01:06:22.974Z,87.84
2024-03-18T01:07:22.896Z,87.84
2024-03-18T01:08:22.968Z,87.84
2024-03-18T01:09:22.879Z,87.99
2024-03-18T01:10:22.862Z,88.20
2024-03-18T01:11:22.848Z,88.09
2024-03-18T01:12:22.845Z,88.09
2024-03-18T01:13:22.880Z,88.20
2024-03-18T01:14:22.838Z,88.09
2024-03-18T01:15:22.876Z,88.30
2024-03-18T01:16:22.817Z,88.30
2024-03-18T01:17:22.854Z,88.40
2024-03-18T01:18:22.762Z,88.40
2024-03-18T01:19:22.835Z,88.40
2024-03-18T01:20:22.780Z,88.61
2024-03-18T01:21:22.752Z,88.61
2024-03-18T01:22:22.716Z,88.51
2024-03-18T01:23:22.738Z,88.61
2024-03-18T01:24:22.696Z,88.61
2024-03-18T01:25:22.712Z,88.71
2024-03-18T01:26:22.700Z,88.82
2024-03-18T01:27:22.684Z,88.85
2024-03-18T01:28:22.646Z,88.96
2024-03-18T01:29:22.644Z,88.96
2024-03-18T01:30:22.652Z,89.17
2024-03-18T01:31:22.626Z,89.17
2024-03-18T01:32:22.604Z,89.27
2024-03-18T01:33:22.614Z,89.37
2024-03-18T01:34:22.582Z,89.37
2024-03-18T01:35:22.571Z,89.27
2024-03-18T01:36:22.574Z,89.37
2024-03-18T01:37:22.515Z,89.48
2024-03-18T01:38:22.498Z,89.48
2024-03-18T01:39:22.495Z,89.48
2024-03-18T01:40:22.515Z,89.58
2024-03-18T01:41:22.521Z,89.69
2024-03-18T01:42:22.510Z,89.69
2024-03-18T01:43:22.451Z,89.69
2024-03-18T01:44:22.420Z,89.83
2024-03-18T01:45:22.410Z,89.94
2024-03-18T01:46:22.435Z,90.04
2024-03-18T01:47:22.407Z,90.04
2024-03-18T01:48:22.410Z,90.14
2024-03-18T01:49:22.428Z,90.14
2024-03-18T01:50:22.350Z,90.25
2024-03-18T01:51:22.370Z,90.25
2024-03-18T01:52:22.359Z,90.25
2024-03-18T01:53:22.333Z,90.25
2024-03-18T01:54:22.346Z,90.25
2024-03-18T01:55:22.301Z,90.35
2024-03-18T01:56:22.273Z,90.45
2024-03-18T01:57:22.260Z,90.56
2024-03-18T01:58:22.307Z,90.66
2024-03-18T01:59:22.250Z,90.77
2024-03-18T02:00:22.239Z,90.81
2024-03-18T02:01:22.225Z,90.91
2024-03-18T02:02:22.196Z,91.02
2024-03-18T02:03:22.238Z,91.12
2024-03-18T02:04:22.211Z,91.22
2024-03-18T02:05:22.236Z,91.22
2024-03-18T02:06:22.158Z,91.22
2024-03-18T02:07:22.184Z,91.22
2024-03-18T02:08:22.270Z,91.22
2024-03-18T02:09:22.144Z,91.33
2024-03-18T02:10:22.147Z,91.33
2024-03-18T02:11:22.138Z,91.33
2024-03-18T02:12:22.116Z,91.43
2024-03-18T02:13:22.093Z,91.53
2024-03-18T02:14:22.043Z,91.53
2024-03-18T02:15:22.094Z,91.68
2024-03-18T02:16:22.061Z,91.64
2024-03-18T02:17:22.152Z,91.64
2024-03-18T02:18:22.997Z,91.64
2024-03-18T02:19:22.061Z,91.53
2024-03-18T02:20:21.971Z,91.64
2024-03-18T02:21:21.969Z,91.53
2024-03-18T02:22:21.987Z,91.53
2024-03-18T02:23:24.667Z,91.64
2024-03-18T02:24:22.004Z,91.64
2024-03-18T02:25:21.907Z,91.43
2024-03-18T02:26:21.918Z,91.43
2024-03-18T02:27:21.912Z,91.43
2024-03-18T02:28:21.914Z,91.43
2024-03-18T02:29:21.940Z,91.43
2024-03-18T02:30:21.909Z,91.53
2024-03-18T02:31:21.887Z,91.53
2024-03-18T02:32:21.829Z,91.53
2024-03-18T02:33:21.829Z,91.53
2024-03-18T02:34:21.827Z,91.33
2024-03-18T02:35:21.803Z,91.43
2024-03-18T02:36:21.851Z,91.43
2024-03-18T02:37:21.834Z,91.53
2024-03-18T02:38:21.732Z,91.53
2024-03-18T02:39:21.747Z,91.43
2024-03-18T02:40:21.733Z,91.43
2024-03-18T02:41:21.757Z,91.33
2024-03-18T02:42:21.709Z,91.43
2024-03-18T02:43:21.780Z,91.53
2024-03-18T02:44:21.747Z,91.43
2024-03-18T02:45:21.680Z,91.53
2024-03-18T02:46:21.662Z,91.53
2024-03-18T02:47:21.679Z,91.53
2024-03-18T02:48:21.687Z,91.64
2024-03-18T02:49:21.622Z,91.68
2024-03-18T02:50:21.636Z,91.78
2024-03-18T02:51:21.586Z,91.89
2024-03-18T02:52:21.586Z,91.89
2024-03-18T02:53:21.584Z,91.99
2024-03-18T02:54:21.622Z,91.99
2024-03-18T02:55:21.644Z,91.99
2024-03-18T02:56:21.529Z,91.99
2024-03-18T02:57:21.534Z,91.99
2024-03-18T02:58:21.486Z,92.10
2024-03-18T02:59:21.495Z,92.10
2024-03-18T03:00:21.470Z,92.20
2024-03-18T03:01:21.495Z,92.20
2024-03-18T03:02:21.425Z,92.20
2024-03-18T03:03:21.428Z,92.10
2024-03-18T03:04:21.436Z,92.10
2024-03-18T03:05:21.439Z,92.10
2024-03-18T03:06:21.519Z,92.10
2024-03-18T03:07:21.456Z,92.20
2024-03-18T03:08:21.386Z,92.30
2024-03-18T03:09:21.442Z,92.35
2024-03-18T03:10:21.348Z,92.35
2024-03-18T03:11:21.405Z,92.45
2024-03-18T03:12:21.384Z,92.55
2024-03-18T03:13:21.303Z,92.45
2024-03-18T03:14:21.319Z,92.55
2024-03-18T03:15:21.293Z,92.55
2024-03-18T03:16:21.289Z,92.66
2024-03-18T03:17:21.275Z,92.55
2024-03-18T03:18:21.322Z,92.55
2024-03-18T03:19:21.221Z,92.30
2024-03-18T03:20:21.293Z,92.20
2024-03-18T03:21:21.275Z,92.14
2024-03-18T03:22:21.256Z,92.35
2024-03-18T03:23:21.222Z,92.35
2024-03-18T03:24:21.152Z,92.55
2024-03-18T03:25:21.136Z,92.66
2024-03-18T03:26:21.158Z,92.66
2024-03-18T03:27:21.195Z,92.66
2024-03-18T03:28:21.118Z,92.66
2024-03-18T03:29:21.170Z,92.66
2024-03-18T03:30:21.100Z,92.66
2024-03-18T03:31:21.071Z,92.66
2024-03-18T03:32:21.062Z,92.76
2024-03-18T03:33:21.086Z,92.66
2024-03-18T03:34:21.089Z,92.55
2024-03-18T03:35:21.052Z,92.55
2024-03-18T03:36:20.994Z,92.45
2024-03-18T03:37:20.996Z,92.55
2024-03-18T03:38:20.975Z,92.55
2024-03-18T03:39:21.022Z,92.66
2024-03-18T03:40:21.047Z,92.76
2024-03-18T03:41:21.034Z,92.76
2024-03-18T03:42:20.942Z,92.91
2024-03-18T03:43:21.005Z,92.91
2024-03-18T03:44:20.925Z,92.91
2024-03-18T03:45:20.951Z,92.91
2024-03-18T03:46:20.953Z,92.91
2024-03-18T03:47:20.944Z,92.86
2024-03-18T03:48:20.907Z,92.86
2024-03-18T03:49:20.840Z,92.86
2024-03-18T03:50:20.833Z,92.97
2024-03-18T03:51:20.883Z,92.97
2024-03-18T03:52:20.837Z,92.97
2024-03-18T03:53:20.791Z,92.97
2024-03-18T03:54:20.856Z,92.97
2024-03-18T03:55:20.759Z,92.86
2024-03-18T03:56:20.754Z,92.76
2024-03-18T03:57:20.783Z,92.86
2024-03-18T03:58:20.829Z,92.76
2024-03-18T03:59:20.744Z,92.76
2024-03-18T04:00:20.709Z,92.76
2024-03-18T04:01:20.742Z,92.76
2024-03-18T04:02:20.760Z,92.76
2024-03-18T04:03:20.677Z,92.76
2024-03-18T04:04:20.661Z,92.76
2024-03-18T04:05:20.645Z,92.66
2024-03-18T04:06:20.727Z,92.66
2024-03-18T04:07:20.608Z,92.66
2024-03-18T04:08:20.623Z,92.55
2024-03-18T04:09:20.590Z,92.66
2024-03-18T04:10:20.582Z,92.66
2024-03-18T04:11:20.620Z,92.66
2024-03-18T04:12:20.589Z,92.66
2024-03-18T04:13:20.649Z,92.66
2024-03-18T04:14:20.523Z,92.66
2024-03-18T04:15:20.543Z,92.55
2024-03-18T04:16:20.494Z,92.55
2024-03-18T04:17:20.476Z,92.66
2024-03-18T04:18:20.488Z,92.66
2024-03-18T04:19:20.523Z,92.66
2024-03-18T04:20:20.476Z,92.66
2024-03-18T04:21:20.472Z,92.66
2024-03-18T04:22:20.417Z,92.55
2024-03-18T04:23:20.398Z,92.55
2024-03-18T04:24:20.426Z,92.45
2024-03-18T04:25:20.505Z,92.45
2024-03-18T04:26:20.405Z,92.35
2024-03-18T04:27:20.375Z,92.35
2024-03-18T04:28:20.387Z,92.45
2024-03-18T04:29:20.390Z,92.45
2024-03-18T04:30:20.398Z,92.55
2024-03-18T04:31:20.351Z,92.45
2024-03-18T04:32:20.385Z,92.45
2024-03-18T04:33:20.324Z,92.45
2024-03-18T04:34:20.292Z,92.45
2024-03-18T04:35:20.324Z,92.45
2024-03-18T04:36:20.242Z,92.45
2024-03-18T04:37:20.250Z,92.45
2024-03-18T04:38:20.271Z,92.49
2024-03-18T04:39:20.278Z,92.60
2024-03-18T04:40:20.204Z,92.80
2024-03-18T04:41:20.255Z,92.91
2024-03-18T04:42:20.174Z,92.91
2024-03-18T04:43:20.151Z,92.91
2024-03-18T04:44:20.143Z,93.01
2024-03-18T04:45:20.124Z,93.01
2024-03-18T04:46:20.120Z,92.91
2024-03-18T04:47:20.241Z,92.91
2024-03-18T04:48:20.082Z,92.80
2024-03-18T04:49:20.107Z,92.80
2024-03-18T04:50:20.209Z,92.80
2024-03-18T04:51:20.104Z,92.91
2024-03-18T04:52:20.173Z,92.91
2024-03-18T04:53:20.083Z,92.91
2024-03-18T04:54:20.048Z,92.91
2024-03-18T04:55:19.992Z,92.80
2024-03-18T04:56:20.022Z,92.80
2024-03-18T04:57:19.990Z,92.70
2024-03-18T04:58:19.975Z,92.70
2024-03-18T04:59:19.952Z,92.70
2024-03-18T05:00:19.991Z,92.70
2024-03-18T05:01:19.977Z,92.85
2024-03-18T05:02:19.944Z,92.80
2024-03-18T05:03:19.911Z,92.85
2024-03-18T05:04:19.911Z,92.85
2024-03-18T05:05:19.904Z,92.85
2024-03-18T05:06:19.866Z,92.95
2024-03-18T05:07:19.852Z,92.95
2024-03-18T05:08:19.955Z,93.05
2024-03-18T05:09:22.206Z,92.85
2024-03-18T05:10:19.866Z,92.95
2024-03-18T05:11:19.836Z,92.85
2024-03-18T05:12:19.808Z,92.85
2024-03-18T05:13:19.826Z,92.95
2024-03-18T05:14:19.852Z,92.95
2024-03-18T05:15:19.768Z,92.95
2024-03-18T05:16:22.312Z,92.95
2024-03-18T05:17:19.755Z,92.91
2024-03-18T05:18:19.778Z,92.85
2024-03-18T05:19:19.727Z,92.85
2024-03-18T05:20:19.708Z,92.80
2024-03-18T05:21:19.694Z,92.80
2024-03-18T05:22:19.708Z,92.70
2024-03-18T05:23:19.661Z,92.70
2024-03-18T05:24:19.671Z,92.70
2024-03-18T05:25:19.646Z,92.80
2024-03-18T05:26:19.598Z,92.80
2024-03-18T05:27:19.637Z,92.80
2024-03-18T05:28:19.659Z,92.80
2024-03-18T05:29:19.604Z,92.80
2024-03-18T05:30:19.600Z,92.70
2024-03-18T05:31:19.561Z,92.70
2024-03-18T05:32:19.560Z,92.60
2024-03-18T05:33:19.581Z,92.60
2024-03-18T05:34:19.560Z,92.60
2024-03-18T05:39:36.429Z,92.70
2024-03-18T05:40:25.721Z,92.70
2024-03-18T05:41:25.744Z,92.70
2024-03-18T05:42:25.689Z,92.70
2024-03-18T05:43:27.197Z,92.80
2024-03-18T05:44:25.634Z,92.80
2024-03-18T05:45:25.653Z,92.80
2024-03-18T05:46:25.736Z,92.76
2024-03-18T05:47:25.632Z,92.76
2024-03-18T05:48:26.880Z,92.66
2024-03-18T05:49:25.673Z,92.55
2024-03-18T05:50:25.584Z,92.55
2024-03-18T05:51:25.552Z,92.55
2024-03-18T05:52:25.612Z,92.55
2024-03-18T05:53:26.088Z,92.55
2024-03-18T05:54:25.545Z,92.55
2024-03-18T05:55:26.070Z,92.66
2024-03-18T05:56:25.504Z,92.66
2024-03-18T05:57:26.084Z,92.66
2024-03-18T05:58:25.524Z,92.66
2024-03-18T05:59:25.484Z,92.55
2024-03-18T06:00:25.445Z,92.55
2024-03-18T06:01:25.472Z,92.55
2024-03-18T06:02:25.447Z,92.45
2024-03-18T06:03:25.404Z,92.35
2024-03-18T06:04:25.465Z,92.35
2024-03-18T06:05:25.896Z,92.35
2024-03-18T06:06:25.398Z,92.24
2024-03-18T06:07:25.392Z,92.35
2024-03-18T06:08:25.502Z,92.24
2024-03-18T06:09:28.143Z,92.35
2024-03-18T06:10:25.480Z,92.24
2024-03-18T06:11:25.586Z,92.03
2024-03-18T06:12:26.069Z,92.24
2024-03-18T06:13:25.275Z,92.20
2024-03-18T06:14:25.332Z,92.10
2024-03-18T06:15:26.101Z,91.99
2024-03-18T06:16:25.269Z,91.68
2024-03-18T06:17:25.256Z,91.58
2024-03-18T06:18:25.239Z,91.47
2024-03-18T06:19:25.233Z,91.37
2024-03-18T06:20:25.233Z,91.06
2024-03-18T06:21:25.286Z,91.06
2024-03-18T06:22:25.146Z,90.95
2024-03-18T06:23:25.149Z,90.95
2024-03-18T06:24:25.219Z,90.85
2024-03-18T06:25:25.185Z,90.85
2024-03-18T06:26:25.125Z,90.54
2024-03-18T06:27:25.133Z,90.64
2024-03-18T06:28:25.180Z,90.54
2024-03-18T06:29:25.235Z,90.60
2024-03-18T06:30:25.051Z,90.29
2024-03-18T06:31:25.105Z,90.29
2024-03-18T06:32:25.137Z,90.39
2024-03-18T06:33:25.098Z,90.39
2024-03-18T06:34:25.096Z,90.29
2024-03-18T06:35:24.992Z,89.98
2024-03-18T06:36:24.982Z,89.98
2024-03-18T06:37:25.063Z,90.08
2024-03-18T06:38:25.096Z,89.98
2024-03-18T06:39:24.978Z,89.87
2024-03-18T06:40:25.754Z,89.87
2024-03-18T06:41:24.928Z,89.87
2024-03-18T06:42:24.999Z,89.67
2024-03-18T06:43:24.920Z,89.56
2024-03-18T06:44:24.993Z,89.73
2024-03-18T06:45:24.911Z,89.31
2024-03-18T06:46:24.876Z,89.31
2024-03-18T06:47:24.961Z,89.21
2024-03-18T06:48:24.917Z,89.21
2024-03-18T06:49:25.069Z,89.11
2024-03-18T06:50:26.271Z,88.90
2024-03-18T06:51:25.016Z,88.75
2024-03-18T06:52:24.817Z,88.75
2024-03-18T06:53:24.812Z,88.44
2024-03-18T06:54:24.748Z,88.23
2024-03-18T06:55:24.741Z,88.34
2024-03-18T06:56:24.757Z,88.44
2024-03-18T06:57:24.756Z,88.02
2024-03-18T06:58:24.845Z,87.78
2024-03-18T06:59:24.723Z,87.57
2024-03-18T07:00:24.728Z,87.57
2024-03-18T07:01:24.672Z,87.47
2024-03-18T07:02:25.056Z,87.05
2024-03-18T07:03:25.963Z,86.39
2024-03-18T07:04:24.669Z,86.39
2024-03-18T07:05:24.603Z,85.66
2024-03-18T07:06:24.641Z,85.46
2024-03-18T07:07:24.582Z,85.25
2024-03-18T07:08:24.613Z,85.94
2024-03-18T07:09:24.775Z,85.21
2024-03-18T07:10:26.903Z,84.65
2024-03-18T07:11:24.582Z,84.23
2024-03-18T07:12:24.656Z,83.51
2024-03-18T07:13:24.523Z,83.37
2024-03-18T07:14:24.745Z,82.65
2024-03-18T07:15:24.651Z,82.54
2024-03-18T07:16:24.464Z,82.23
2024-03-18T07:17:24.488Z,81.61
2024-03-18T07:18:24.503Z,81.61
2024-03-18T07:19:24.529Z,81.51
2024-03-18T07:20:29.241Z,82.13
2024-03-18T07:21:25.850Z,82.09
2024-03-18T07:22:24.409Z,80.85
2024-03-18T07:23:24.460Z,81.26
2024-03-18T07:24:24.662Z,81.68
2024-03-18T07:25:25.290Z,80.81
2024-03-18T07:26:24.437Z,80.40
2024-03-18T07:27:24.396Z,79.84
2024-03-18T07:28:25.523Z,79.12
2024-03-18T07:29:24.473Z,78.81
2024-03-18T07:30:24.343Z,78.29
2024-03-18T07:31:24.349Z,77.67
2024-03-18T07:32:24.444Z,77.77
2024-03-18T07:33:24.288Z,77.87
2024-03-18T07:34:24.305Z,77.26
2024-03-18T07:35:24.278Z,77.87
2024-03-18T07:36:24.442Z,77.67
2024-03-18T07:37:24.368Z,78.05
2024-03-18T07:39:24.421Z,77.77
2024-03-18T07:40:24.350Z,77.47
2024-03-18T07:41:24.395Z,77.87
2024-03-18T07:42:24.180Z,77.47
2024-03-18T07:43:24.213Z,77.67
2024-03-18T07:44:24.155Z,77.67
2024-03-18T07:45:24.208Z,77.05
2024-03-18T07:46:24.234Z,76.74
2024-03-18T07:47:24.337Z,77.26
2024-03-18T07:48:24.104Z,77.74
2024-03-18T07:49:24.042Z,77.43
2024-03-18T07:50:24.146Z,76.39
2024-03-18T07:51:24.083Z,76.18
2024-03-18T07:52:24.130Z,76.53
2024-03-18T07:53:24.052Z,76.70
2024-03-18T07:54:24.036Z,76.60
2024-03-18T07:55:24.740Z,76.81
2024-03-18T07:56:23.981Z,77.53
2024-03-18T07:57:23.973Z,77.12
2024-03-18T07:58:23.948Z,76.29
2024-03-18T07:59:23.958Z,75.57
2024-03-18T08:00:24.708Z,75.88
2024-03-18T08:01:23.985Z,76.09
2024-03-18T08:02:23.880Z,75.88
2024-03-18T08:03:23.868Z,76.09
2024-03-18T08:04:23.872Z,76.36
2024-03-18T08:05:23.917Z,75.84
2024-03-18T08:06:23.833Z,75.84
2024-03-18T08:07:23.848Z,76.36
2024-03-18T08:08:23.809Z,76.36
2024-03-18T08:09:23.880Z,76.26
2024-03-18T08:10:24.078Z,76.05
2024-03-18T08:11:23.779Z,75.63
2024-03-18T08:12:23.816Z,76.05
2024-03-18T08:13:23.736Z,75.39
2024-03-18T08:14:23.762Z,76.01
2024-03-18T08:15:23.714Z,75.60
2024-03-18T08:16:23.755Z,75.29
2024-03-18T08:17:23.683Z,74.67
2024-03-18T08:18:23.764Z,74.77
2024-03-18T08:19:23.695Z,75.15
2024-03-18T08:20:23.808Z,74.84
2024-03-18T08:21:23.713Z,74.91
2024-03-18T08:22:23.929Z,74.71
2024-03-18T08:23:23.640Z,74.29
2024-03-18T08:24:23.597Z,74.15
2024-03-18T08:25:23.682Z,72.61
2024-03-18T08:26:23.638Z,73.22
2024-03-18T08:27:23.586Z,73.19
2024-03-18T08:28:23.673Z,72.99
2024-03-18T08:29:23.827Z,71.23
2024-03-18T08:30:23.535Z,71.23
2024-03-18T08:31:23.526Z,70.92
2024-03-18T08:32:23.648Z,70.92
2024-03-18T08:33:29.513Z,70.41
2024-03-18T08:34:24.470Z,71.72
2024-03-18T08:35:23.577Z,70.37
2024-03-18T08:36:23.586Z,70.48
2024-03-18T08:37:23.422Z,69.73
2024-03-18T08:38:23.456Z,69.90
2024-03-18T08:39:23.396Z,68.87
2024-03-18T08:40:23.385Z,68.35
2024-03-18T08:41:23.382Z,68.74
2024-03-18T08:42:23.403Z,68.63
2024-03-18T08:43:23.449Z,68.08
2024-03-18T08:44:23.409Z,67.57
2024-03-18T08:45:23.587Z,67.78
2024-03-18T08:46:23.409Z,67.23
2024-03-18T08:47:23.367Z,66.72
2024-03-18T08:48:23.340Z,66.00
2024-03-18T08:49:23.302Z,65.77
2024-03-18T08:50:23.328Z,65.86
2024-03-18T08:51:23.261Z,65.97
2024-03-18T08:52:23.258Z,65.94
2024-03-18T08:53:23.232Z,66.45
2024-03-18T08:54:23.238Z,65.80
2024-03-18T08:55:23.325Z,65.80
2024-03-18T08:56:23.192Z,64.37
2024-03-18T08:57:23.244Z,64.78
2024-03-18T08:58:23.165Z,64.88
2024-03-18T08:59:23.149Z,65.09
2024-03-18T09:00:23.173Z,65.19
2024-03-18T09:01:23.132Z,65.26
2024-03-18T09:02:23.106Z,64.67
2024-03-18T09:03:23.093Z,64.67
2024-03-18T09:04:23.180Z,64.98
2024-03-18T09:05:23.153Z,65.80
2024-03-18T09:06:23.176Z,64.50
2024-03-18T09:07:23.043Z,64.81
2024-03-18T09:08:24.119Z,64.70
2024-03-18T09:09:23.113Z,65.32
2024-03-18T09:10:22.991Z,65.29
2024-03-18T09:11:23.036Z,65.19
2024-03-18T09:12:23.000Z,64.57
2024-03-18T09:13:23.437Z,65.19
2024-03-18T09:14:23.582Z,64.88
2024-03-18T09:15:23.066Z,64.26
2024-03-18T09:16:23.522Z,65.19
2024-03-18T09:17:22.993Z,64.88
2024-03-18T09:18:23.082Z,64.88
2024-03-18T09:19:22.951Z,64.98
2024-03-18T09:20:22.899Z,64.26
2024-03-18T09:21:22.981Z,64.78
2024-03-18T09:22:22.899Z,64.95
2024-03-18T09:23:22.889Z,63.93
2024-03-18T09:24:22.828Z,64.47
2024-03-18T09:25:22.896Z,64.54
2024-03-18T09:26:22.862Z,64.23
2024-03-18T09:27:22.886Z,64.82
2024-03-18T09:28:22.888Z,63.42
2024-03-18T09:29:22.789Z,64.67
2024-03-18T09:30:22.829Z,64.06
2024-03-18T09:31:22.791Z,64.26
2024-03-18T09:32:22.768Z,64.75
2024-03-18T09:33:23.016Z,64.34
2024-03-18T09:34:22.693Z,64.31
2024-03-18T09:35:22.728Z,63.28
2024-03-18T09:36:22.743Z,63.39
2024-03-18T09:37:22.709Z,63.69
2024-03-18T09:38:23.351Z,63.28
2024-03-18T09:39:22.674Z,63.46
2024-03-18T09:40:22.694Z,62.43
2024-03-18T09:41:22.650Z,62.74
2024-03-18T09:42:22.755Z,62.71
2024-03-18T09:43:22.636Z,62.37
2024-03-18T09:44:22.775Z,62.19
2024-03-18T09:45:22.615Z,62.10
2024-03-18T09:46:22.544Z,62.10
2024-03-18T09:47:31.849Z,61.89
2024-03-18T09:48:23.603Z,61.86
2024-03-18T09:49:22.547Z,61.48
2024-03-18T09:50:22.560Z,61.27
2024-03-18T09:51:22.605Z,62.40
2024-03-18T09:52:23.462Z,61.99
2024-03-18T09:53:22.603Z,61.99
2024-03-18T09:54:22.473Z,61.89
2024-03-18T09:55:22.486Z,61.99
2024-03-18T09:56:22.474Z,61.96
2024-03-18T09:57:22.443Z,61.96
2024-03-18T09:58:22.576Z,61.52
2024-03-18T09:59:22.424Z,61.52
2024-03-18T10:00:22.392Z,61.43
2024-03-18T10:01:22.342Z,61.01
2024-03-18T10:02:23.888Z,60.71
2024-03-18T10:03:22.339Z,61.43
2024-03-18T10:04:22.328Z,60.81
2024-03-18T10:05:22.400Z,61.25
2024-03-18T10:06:22.293Z,61.25
2024-03-18T10:07:22.270Z,60.91
2024-03-18T10:08:22.321Z,60.74
2024-03-18T10:09:22.258Z,60.81
2024-03-18T10:10:22.271Z,61.01
2024-03-18T10:11:22.234Z,61.01
2024-03-18T10:12:22.530Z,60.30
2024-03-18T10:13:22.290Z,60.50
2024-03-18T10:14:22.221Z,60.99
2024-03-18T10:15:22.212Z,60.88
2024-03-18T10:16:22.186Z,61.19
2024-03-18T10:17:23.129Z,61.57
2024-03-18T10:18:23.008Z,60.35
2024-03-18T10:19:22.216Z,59.83
2024-03-18T10:20:22.202Z,59.53
2024-03-18T10:21:22.159Z,60.24
2024-03-18T10:22:22.167Z,59.73
2024-03-18T10:23:22.122Z,59.63
2024-03-18T10:24:22.085Z,59.89
2024-03-18T10:25:22.059Z,61.01
2024-03-18T10:26:22.341Z,61.19
2024-03-18T10:27:22.100Z,60.78
2024-03-18T10:28:22.137Z,60.85
2024-03-18T10:29:22.045Z,59.94
2024-03-18T10:30:22.129Z,60.17
2024-03-18T10:31:22.591Z,59.86
2024-03-18T10:32:22.059Z,59.58
2024-03-18T10:33:22.500Z,60.22
2024-03-18T10:34:21.960Z,60.19
2024-03-18T10:35:21.990Z,60.19
2024-03-18T10:36:21.886Z,60.02
2024-03-18T10:37:21.916Z,60.02
2024-03-18T10:38:22.558Z,60.66
2024-03-18T10:39:21.887Z,61.25
2024-03-18T10:40:21.934Z,60.94
2024-03-18T10:41:22.517Z,61.32
2024-03-18T10:42:21.949Z,60.19
2024-03-18T10:43:21.846Z,59.99
2024-03-18T10:44:22.466Z,59.81
2024-03-18T10:45:21.854Z,60.33
2024-03-18T10:46:22.555Z,60.84
2024-03-18T10:47:21.862Z,60.33
2024-03-18T10:48:21.753Z,61.04
2024-03-18T10:49:21.727Z,61.04
2024-03-18T10:50:21.733Z,60.91
2024-03-18T10:51:21.712Z,61.09
2024-03-18T10:52:21.740Z,60.47
2024-03-18T10:53:21.715Z,60.24
2024-03-18T10:54:21.696Z,59.83
2024-03-18T10:55:22.115Z,59.83
2024-03-18T10:56:21.845Z,60.14
2024-03-18T10:57:21.715Z,59.12
2024-03-18T10:58:21.631Z,59.83
2024-03-18T10:59:21.581Z,59.83
2024-03-18T11:00:21.726Z,59.66
2024-03-18T11:01:22.513Z,60.88
2024-03-18T11:02:22.368Z,59.94
2024-03-18T11:03:21.741Z,59.94
2024-03-18T11:04:21.630Z,60.03
2024-03-18T11:05:21.809Z,60.24
2024-03-18T11:06:21.616Z,59.60
2024-03-18T11:07:21.537Z,58.86
2024-03-18T11:08:21.565Z,58.75
2024-03-18T11:09:21.456Z,58.65
2024-03-18T11:10:21.552Z,58.32
2024-03-18T11:11:21.474Z,58.52
2024-03-18T11:12:21.436Z,57.70
2024-03-18T11:13:21.478Z,58.93
2024-03-18T11:14:21.508Z,57.57
2024-03-18T11:15:21.383Z,57.27
2024-03-18T11:16:21.387Z,57.20
2024-03-18T11:17:21.440Z,57.81
2024-03-18T11:18:21.437Z,58.11
2024-03-18T11:19:21.408Z,58.60
2024-03-18T11:20:21.462Z,57.57
2024-03-18T11:21:21.349Z,57.27
2024-03-18T11:22:21.381Z,57.24
2024-03-18T11:23:21.459Z,56.94
2024-03-18T11:24:21.276Z,56.94
2024-03-18T11:25:21.266Z,56.23
2024-03-18T11:26:21.323Z,56.53
2024-03-18T11:27:21.260Z,56.02
2024-03-18T11:28:21.238Z,56.04
2024-03-18T11:29:21.234Z,56.66
2024-03-18T11:30:21.205Z,56.43
2024-03-18T11:31:21.225Z,55.74
2024-03-18T11:32:21.201Z,56.23
2024-03-18T11:33:21.202Z,55.51
2024-03-18T11:34:21.179Z,56.32
2024-03-18T11:35:21.499Z,55.30
2024-03-18T11:36:21.160Z,56.38
2024-03-18T11:37:21.181Z,56.66
2024-03-18T11:38:21.197Z,56.56
2024-03-18T11:39:21.172Z,56.86
2024-03-18T11:40:21.156Z,56.66
2024-03-18T11:41:21.173Z,56.23
2024-03-18T11:42:21.055Z,56.23
2024-03-18T11:43:21.145Z,56.02
2024-03-18T11:44:21.084Z,56.53
2024-03-18T11:45:21.052Z,56.43
2024-03-18T11:46:21.030Z,56.81
2024-03-18T11:47:20.984Z,56.10
2024-03-18T11:48:21.374Z,55.38
2024-03-18T11:49:21.099Z,55.18
2024-03-18T11:50:20.969Z,55.38
2024-03-18T11:51:20.981Z,55.51
2024-03-18T11:52:20.928Z,55.41
2024-03-18T11:53:21.573Z,56.02
2024-03-18T11:54:20.930Z,56.12
2024-03-18T11:55:21.883Z,56.10
2024-03-18T11:56:21.399Z,55.79
2024-03-18T11:57:20.855Z,55.41
2024-03-18T11:58:20.888Z,55.91
2024-03-18T11:59:20.799Z,56.12
2024-03-18T12:00:20.872Z,56.02
2024-03-18T12:01:20.830Z,56.32
2024-03-18T12:02:20.786Z,55.00
2024-03-18T12:03:20.752Z,56.15
2024-03-18T12:04:20.768Z,55.97
2024-03-18T12:05:20.801Z,56.38
2024-03-18T12:06:20.768Z,56.48
2024-03-18T12:07:20.738Z,56.66
2024-03-18T12:08:20.751Z,55.56
2024-03-18T12:09:20.704Z,56.27
2024-03-18T12:10:20.716Z,56.15
2024-03-18T12:11:20.736Z,56.56
2024-03-18T12:12:20.674Z,55.63
2024-03-18T12:13:20.809Z,54.92
2024-03-18T12:14:20.680Z,55.43
2024-03-18T12:15:20.605Z,55.63
2024-03-18T12:16:20.618Z,55.51
2024-03-18T12:17:21.618Z,54.59
2024-03-18T12:18:21.648Z,54.69
2024-03-18T12:19:20.718Z,54.08
2024-03-18T12:20:20.616Z,54.00
2024-03-18T12:21:20.588Z,54.61
2024-03-18T12:22:21.347Z,54.79
2024-03-18T12:23:20.686Z,54.39
2024-03-18T12:24:20.514Z,53.36
2024-03-18T12:25:20.511Z,53.77
2024-03-18T12:26:20.564Z,53.16
2024-03-18T12:27:20.500Z,53.47
2024-03-18T12:28:20.472Z,53.75
2024-03-18T12:29:21.694Z,52.53
2024-03-18T12:30:20.791Z,52.62
2024-03-18T12:31:20.439Z,52.93
2024-03-18T12:32:20.423Z,53.14
2024-03-18T12:33:20.368Z,52.83
2024-03-18T12:34:20.363Z,53.34
2024-03-18T12:35:20.470Z,53.03
2024-03-18T12:36:20.340Z,53.24
2024-03-18T12:37:20.377Z,53.14
2024-03-18T12:38:20.326Z,52.81
2024-03-18T12:39:20.295Z,52.88
2024-03-18T12:40:20.374Z,53.09
2024-03-18T12:41:21.365Z,52.66
2024-03-18T12:42:20.457Z,51.94
2024-03-18T12:43:20.324Z,51.92
2024-03-18T12:44:20.253Z,51.51
2024-03-18T12:45:29.349Z,51.51
2024-03-18T12:46:26.003Z,50.82
2024-03-18T12:47:21.211Z,51.33
2024-03-18T12:48:20.253Z,51.64
2024-03-18T12:49:20.214Z,51.15
2024-03-18T12:50:20.240Z,51.86
2024-03-18T12:51:20.161Z,52.20
2024-03-18T12:52:20.236Z,52.81
2024-03-18T12:53:20.152Z,52.70
2024-03-18T12:54:20.198Z,52.58
2024-03-18T12:55:20.164Z,52.07
2024-03-18T12:56:20.138Z,52.27
2024-03-18T12:57:20.054Z,52.17